Time;durP1;ratioP1;P1;durP2;ratioP2;P2;SDS_P1;SDS_P2;PMS_P1;PMS_P2;Temp;Humidity;BMP_temperature;BMP_pressure;BME280_temperature;BME280_humidity;BME280_pressure;Samples;Min_cycle;Max_cycle;Signal;HPM_P1;HPM_P2
2021/12/22 00:01:31;;;;;;;80.80;40.28;;;;;;;;;;6216084;28;20141;-64
2021/12/22 00:04:38;;;;;;;73.03;37.47;;;;;;;;;;6225553;28;20046;-65
2021/12/22 00:07:40;;;;;;;88.22;40.13;;;;;;;;;;6211876;28;20049;-65
2021/12/22 00:10:42;;;;;;;83.00;38.53;;;;;;;;;;6215690;28;20194;-64
2021/12/22 00:13:44;;;;;;;78.45;38.40;;;;;;;;;;6226518;28;20046;-64
2021/12/22 00:16:47;;;;;;;78.65;37.35;;;;;;;;;;6208645;28;20628;-64
2021/12/22 00:19:49;;;;;;;80.80;38.42;;;;;;;;;;6220852;28;20060;-64
2021/12/22 00:22:51;;;;;;;79.05;37.28;;;;;;;;;;6229946;28;20063;-64
2021/12/22 00:25:52;;;;;;;76.03;38.03;;;;;;;;;;6213615;28;20038;-64
2021/12/22 00:28:54;;;;;;;89.60;37.55;;;;;;;;;;6225518;28;20057;-64
2021/12/22 00:32:09;;;;;;;75.18;35.20;;;;;;;;;;6213447;28;20107;-65
2021/12/22 00:35:10;;;;;;;78.32;38.25;;;;;;;;;;6218005;28;20072;-64
2021/12/22 00:38:13;;;;;;;76.38;37.72;;;;;;;;;;6232828;28;20055;-65
2021/12/22 00:41:16;;;;;;;77.13;36.03;;;;;;;;;;6222248;28;20140;-65
2021/12/22 00:44:17;;;;;;;72.32;36.13;;;;;;;;;;6235488;28;20184;-65
2021/12/22 00:47:22;;;;;;;85.93;38.10;;;;;;;;;;6218959;28;20362;-64
2021/12/22 00:50:24;;;;;;;74.38;36.83;;;;;;;;;;6228019;28;20042;-65
2021/12/22 00:53:26;;;;;;;84.38;37.15;;;;;;;;;;6230147;28;20041;-66
2021/12/22 00:56:27;;;;;;;76.57;35.65;;;;;;;;;;6215634;28;20053;-65
2021/12/22 00:59:29;;;;;;;73.90;36.17;;;;;;;;;;6225149;28;20049;-66
2021/12/22 01:02:32;;;;;;;82.72;37.20;;;;;;;;;;6211231;28;20559;-65
2021/12/22 01:05:33;;;;;;;74.03;35.25;;;;;;;;;;6201647;28;20050;-65
2021/12/22 01:08:35;;;;;;;80.00;36.47;;;;;;;;;;6222227;28;20054;-65
2021/12/22 01:11:37;;;;;;;77.55;38.63;;;;;;;;;;6209220;28;20054;-65
2021/12/22 01:14:39;;;;;;;85.13;37.67;;;;;;;;;;6224260;28;20049;-65
2021/12/22 01:17:45;;;;;;;71.00;37.65;;;;;;;;;;6209886;28;20551;-65
2021/12/22 01:21:00;;;;;;;76.90;38.55;;;;;;;;;;6212830;28;20045;-65
2021/12/22 01:24:13;;;;;;;80.20;38.58;;;;;;;;;;6227161;28;20150;-65
2021/12/22 01:27:20;;;;;;;77.82;37.30;;;;;;;;;;6217828;28;20057;-66
2021/12/22 01:30:25;;;;;;;78.65;37.53;;;;;;;;;;6214668;28;20512;-64
2021/12/22 01:33:28;;;;;;;83.40;38.65;;;;;;;;;;6217612;28;20042;-64
2021/12/22 01:36:29;;;;;;;84.18;39.25;;;;;;;;;;6211719;28;20110;-65
2021/12/22 01:39:31;;;;;;;81.80;37.75;;;;;;;;;;6225029;28;20339;-65
2021/12/22 01:42:32;;;;;;;81.22;37.50;;;;;;;;;;6219494;28;20048;-65
2021/12/22 01:46:07;;;;;;;81.00;38.75;;;;;;;;;;6216107;28;20069;-65
2021/12/22 01:49:11;;;;;;;;;;;;;;;;;;6222624;28;20049;-66
2021/12/22 01:52:12;;;;;;;75.65;37.05;;;;;;;;;;6212726;28;19929;-65
2021/12/22 01:55:27;;;;;;;72.78;35.35;;;;;;;;;;6218427;28;21890;-65
2021/12/22 01:58:39;;;;;;;83.22;37.53;;;;;;;;;;6223832;28;20061;-65
2021/12/22 02:01:41;;;;;;;84.30;40.03;;;;;;;;;;6212988;28;20045;-65
2021/12/22 02:04:45;;;;;;;81.05;38.95;;;;;;;;;;6224048;28;20046;-65
2021/12/22 02:07:48;;;;;;;78.55;37.22;;;;;;;;;;6214117;28;20452;-65
2021/12/22 02:10:50;;;;;;;82.72;37.20;;;;;;;;;;6222921;28;20057;-65
2021/12/22 02:13:57;;;;;;;80.22;37.78;;;;;;;;;;6222215;28;20046;-65
2021/12/22 02:16:59;;;;;;;81.53;37.42;;;;;;;;;;6207376;28;20054;-65
2021/12/22 02:20:02;;;;;;;76.80;38.33;;;;;;;;;;6220281;28;20136;-65
2021/12/22 02:23:03;;;;;;;82.32;38.30;;;;;;;;;;6215709;28;20129;-66
2021/12/22 02:26:10;;;;;;;84.18;39.70;;;;;;;;;;6223043;28;20127;-65
2021/12/22 02:29:20;;;;;;;78.53;40.08;;;;;;;;;;6227497;28;20038;-66
2021/12/22 02:32:39;;;;;;;85.78;39.85;;;;;;;;;;6217675;28;20037;-65
2021/12/22 02:35:45;;;;;;;82.55;38.58;;;;;;;;;;6226774;28;20037;-65
2021/12/22 02:38:49;;;;;;;78.32;39.55;;;;;;;;;;6233765;28;20386;-65
2021/12/22 02:41:51;;;;;;;79.53;37.90;;;;;;;;;;6222258;28;20140;-65
2021/12/22 02:44:52;;;;;;;76.82;37.67;;;;;;;;;;6232949;28;20045;-65
2021/12/22 02:47:54;;;;;;;71.88;37.00;;;;;;;;;;6209563;28;20045;-65
2021/12/22 02:50:59;;;;;;;80.60;39.95;;;;;;;;;;6220875;28;20070;-65
2021/12/22 02:54:07;;;;;;;85.93;40.10;;;;;;;;;;6233019;28;20132;-65
2021/12/22 02:57:21;;;;;;;85.88;40.47;;;;;;;;;;6223471;28;20462;-66
2021/12/22 03:00:33;;;;;;;85.88;41.08;;;;;;;;;;6221978;28;20053;-66
2021/12/22 03:03:50;;;;;;;85.55;39.38;;;;;;;;;;6222596;28;20566;-65
2021/12/22 03:06:57;;;;;;;87.80;40.80;;;;;;;;;;6211903;28;20049;-65
2021/12/22 03:10:01;;;;;;;86.82;41.88;;;;;;;;;;6225965;28;20053;-65
2021/12/22 03:13:04;;;;;;;81.13;38.85;;;;;;;;;;6215921;28;20592;-65
2021/12/22 03:16:06;;;;;;;82.10;39.80;;;;;;;;;;6208763;28;20038;-65
2021/12/22 03:19:08;;;;;;;83.32;38.97;;;;;;;;;;6228080;28;20103;-65
2021/12/22 03:22:12;;;;;;;84.80;39.60;;;;;;;;;;6222815;28;20558;-65
2021/12/22 03:25:16;;;;;;;77.57;38.22;;;;;;;;;;6222968;28;20042;-65
2021/12/22 03:28:17;;;;;;;81.88;38.03;;;;;;;;;;6227821;28;20057;-65
2021/12/22 03:31:19;;;;;;;75.35;38.13;;;;;;;;;;6217923;28;20441;-65
2021/12/22 03:34:20;;;;;;;72.30;37.47;;;;;;;;;;6227515;28;20092;-65
2021/12/22 03:37:23;;;;;;;84.63;38.35;;;;;;;;;;6216060;28;20742;-65
2021/12/22 03:40:26;;;;;;;78.20;37.50;;;;;;;;;;6228464;28;20988;-65
2021/12/22 03:43:28;;;;;;;79.88;38.42;;;;;;;;;;6225582;28;20517;-66
2021/12/22 03:46:30;;;;;;;71.10;35.78;;;;;;;;;;6203486;28;20042;-65
2021/12/22 03:49:31;;;;;;;80.72;37.03;;;;;;;;;;6223266;28;20500;-65
2021/12/22 03:52:34;;;;;;;77.45;37.25;;;;;;;;;;6216101;28;20091;-65
2021/12/22 03:55:36;;;;;;;75.43;37.38;;;;;;;;;;6215736;28;20519;-65
2021/12/22 03:58:38;;;;;;;82.63;38.03;;;;;;;;;;6222797;28;20609;-65
2021/12/22 04:01:39;;;;;;;77.63;37.47;;;;;;;;;;6212185;28;20125;-65
2021/12/22 04:04:44;;;;;;;77.03;36.28;;;;;;;;;;6224691;28;20588;-65
2021/12/22 04:07:47;;;;;;;73.75;35.85;;;;;;;;;;6217771;28;20049;-65
2021/12/22 04:10:50;;;;;;;80.22;37.55;;;;;;;;;;6223120;28;20062;-65
2021/12/22 04:13:51;;;;;;;71.75;35.47;;;;;;;;;;6226193;28;20046;-65
2021/12/22 04:16:53;;;;;;;80.53;36.85;;;;;;;;;;6212978;28;20423;-65
2021/12/22 04:19:55;;;;;;;77.60;36.22;;;;;;;;;;6226325;28;20115;-65
2021/12/22 04:22:59;;;;;;;74.70;36.97;;;;;;;;;;6215205;28;20042;-66
2021/12/22 04:26:01;;;;;;;73.80;36.15;;;;;;;;;;6225755;28;20050;-65
2021/12/22 04:29:04;;;;;;;76.30;37.25;;;;;;;;;;6239354;28;20061;-65
2021/12/22 04:32:06;;;;;;;69.25;36.28;;;;;;;;;;6217119;28;20034;-65
2021/12/22 04:35:08;;;;;;;68.30;37.45;;;;;;;;;;6232955;28;20053;-65
2021/12/22 04:38:11;;;;;;;70.05;34.08;;;;;;;;;;6242667;28;20048;-65
2021/12/22 04:41:12;;;;;;;70.65;34.90;;;;;;;;;;6224472;28;20052;-66
2021/12/22 04:44:14;;;;;;;66.85;33.80;;;;;;;;;;6237213;28;20049;-65
2021/12/22 04:47:16;;;;;;;63.58;32.92;;;;;;;;;;6222020;28;20496;-65
2021/12/22 04:50:19;;;;;;;62.83;31.80;;;;;;;;;;6230912;28;20103;-65
2021/12/22 04:53:25;;;;;;;63.30;33.57;;;;;;;;;;6238728;28;20136;-66
2021/12/22 04:56:27;;;;;;;60.35;32.25;;;;;;;;;;6238621;28;20535;-65
2021/12/22 04:59:28;;;;;;;62.25;32.90;;;;;;;;;;6232750;28;20037;-66
2021/12/22 05:02:30;;;;;;;61.85;31.83;;;;;;;;;;6225512;28;20052;-65
2021/12/22 05:05:32;;;;;;;64.88;32.88;;;;;;;;;;6227038;28;20305;-65
2021/12/22 05:08:35;;;;;;;65.25;32.83;;;;;;;;;;6241770;28;20057;-65
2021/12/22 05:11:36;;;;;;;63.55;32.33;;;;;;;;;;6220808;28;20049;-65
2021/12/22 05:14:39;;;;;;;64.32;33.55;;;;;;;;;;6224768;28;20053;-65
2021/12/22 05:21:05;;;;;;;63.13;32.40;;;;;;;;;;6206333;28;20046;-65
2021/12/22 05:24:08;;;;;;;65.00;32.85;;;;;;;;;;6223331;28;20148;-65
2021/12/22 05:27:11;;;;;;;63.20;32.30;;;;;;;;;;6219219;28;20188;-66
2021/12/22 05:30:13;;;;;;;60.40;30.80;;;;;;;;;;6224361;28;20048;-64
2021/12/22 05:33:15;;;;;;;65.00;32.40;;;;;;;;;;6217130;28;20054;-65
2021/12/22 05:36:17;;;;;;;65.95;31.98;;;;;;;;;;6216002;28;20616;-65
2021/12/22 05:39:20;;;;;;;60.67;32.50;;;;;;;;;;6222637;28;20119;-65
2021/12/22 05:42:22;;;;;;;64.90;31.88;;;;;;;;;;6215734;28;20099;-65
2021/12/22 05:45:24;;;;;;;64.18;33.15;;;;;;;;;;6223673;28;20136;-65
2021/12/22 05:48:26;;;;;;;69.43;34.05;;;;;;;;;;6221711;28;20041;-65
2021/12/22 05:51:30;;;;;;;61.17;33.58;;;;;;;;;;6216400;28;20111;-65
2021/12/22 05:54:33;;;;;;;70.53;34.67;;;;;;;;;;6225216;28;20042;-65
2021/12/22 05:57:35;;;;;;;69.90;35.08;;;;;;;;;;6211657;28;20049;-65
2021/12/22 06:00:37;;;;;;;64.45;33.65;;;;;;;;;;6215057;28;20063;-65
2021/12/22 06:03:38;;;;;;;70.57;34.47;;;;;;;;;;6222654;28;20136;-65
2021/12/22 06:06:41;;;;;;;68.78;34.05;;;;;;;;;;6224888;28;20053;-64
2021/12/22 06:09:44;;;;;;;66.90;34.13;;;;;;;;;;6233216;28;20069;-64
2021/12/22 06:12:46;;;;;;;67.60;33.75;;;;;;;;;;6218258;28;20049;-64
2021/12/22 06:15:47;;;;;;;67.85;33.53;;;;;;;;;;6212262;28;20037;-71
2021/12/22 06:18:55;;;;;;;68.78;35.08;;;;;;;;;;6227430;28;20056;-64
2021/12/22 06:21:56;;;;;;;69.53;33.55;;;;;;;;;;6222791;28;20046;-65
2021/12/22 06:24:59;;;;;;;66.05;33.03;;;;;;;;;;6236228;28;20054;-64
2021/12/22 06:28:01;;;;;;;63.78;33.67;;;;;;;;;;6231639;28;20143;-64
2021/12/22 06:31:03;;;;;;;61.28;33.60;;;;;;;;;;6233110;28;20123;-64
2021/12/22 06:34:04;;;;;;;68.07;33.42;;;;;;;;;;6242114;28;20060;-65
2021/12/22 06:37:06;;;;;;;62.15;32.67;;;;;;;;;;6238232;28;20142;-64
2021/12/22 06:40:10;;;;;;;53.22;30.95;;;;;;;;;;6250467;28;20048;-64
2021/12/22 06:43:12;;;;;;;56.63;31.77;;;;;;;;;;6247433;28;20038;-65
2021/12/22 06:46:13;;;;;;;58.78;31.90;;;;;;;;;;6231025;28;20127;-65
2021/12/22 06:49:15;;;;;;;60.25;30.48;;;;;;;;;;6250412;28;20050;-65
2021/12/22 06:52:17;;;;;;;57.33;30.58;;;;;;;;;;6239308;28;22098;-65
2021/12/22 06:55:20;;;;;;;60.45;30.70;;;;;;;;;;6240498;28;20053;-64
2021/12/22 06:58:21;;;;;;;57.90;29.58;;;;;;;;;;6249584;28;20469;-64
2021/12/22 07:01:23;;;;;;;52.75;29.25;;;;;;;;;;6232123;28;20049;-65
2021/12/22 07:04:24;;;;;;;58.53;30.15;;;;;;;;;;6242520;28;20049;-64
2021/12/22 07:07:26;;;;;;;57.30;30.42;;;;;;;;;;6228540;28;20131;-64
2021/12/22 07:10:29;;;;;;;57.03;31.27;;;;;;;;;;6236315;28;20669;-65
2021/12/22 07:13:31;;;;;;;52.63;29.48;;;;;;;;;;6236675;28;20448;-65
2021/12/22 07:16:32;;;;;;;49.90;29.17;;;;;;;;;;6220163;28;20049;-64
2021/12/22 07:19:34;;;;;;;50.42;28.38;;;;;;;;;;6238134;28;20110;-65
2021/12/22 07:22:36;;;;;;;48.50;28.52;;;;;;;;;;6227627;28;20118;-64
2021/12/22 07:25:39;;;;;;;52.25;27.98;;;;;;;;;;6223765;28;20120;-65
2021/12/22 07:28:41;;;;;;;47.60;27.33;;;;;;;;;;6232009;28;20152;-65
2021/12/22 07:31:43;;;;;;;53.35;27.58;;;;;;;;;;6222350;28;20613;-65
2021/12/22 07:34:49;;;;;;;52.60;27.38;;;;;;;;;;6228865;28;20060;-65
2021/12/22 07:37:58;;;;;;;49.17;27.70;;;;;;;;;;6226807;28;20382;-65
2021/12/22 07:41:02;;;;;;;50.47;27.98;;;;;;;;;;6229567;28;20052;-64
2021/12/22 07:44:04;;;;;;;50.50;27.95;;;;;;;;;;6232130;28;20089;-65
2021/12/22 07:47:07;;;;;;;46.22;27.08;;;;;;;;;;6215282;28;20045;-65
2021/12/22 07:50:09;;;;;;;45.00;26.65;;;;;;;;;;6232871;28;20060;-65
2021/12/22 07:53:11;;;;;;;49.90;26.98;;;;;;;;;;6231129;28;20386;-65
2021/12/22 07:56:15;;;;;;;46.70;25.88;;;;;;;;;;6231905;28;20049;-65
2021/12/22 07:59:17;;;;;;;37.30;20.02;;;;;;;;;;6236292;28;20512;-65
2021/12/22 08:02:18;;;;;;;43.45;26.13;;;;;;;;;;6229070;28;20037;-65
2021/12/22 08:05:20;;;;;;;45.58;24.25;;;;;;;;;;6235668;28;20048;-65
2021/12/22 08:08:22;;;;;;;41.15;24.05;;;;;;;;;;6242480;28;20064;-65
2021/12/22 08:11:25;;;;;;;46.80;25.33;;;;;;;;;;6227341;28;20433;-65
2021/12/22 08:14:26;;;;;;;41.85;23.77;;;;;;;;;;6228225;28;20180;-65
2021/12/22 08:17:30;;;;;;;38.42;22.58;;;;;;;;;;6205480;28;20062;-66
2021/12/22 08:20:32;;;;;;;32.13;21.40;;;;;;;;;;6220436;28;20141;-64
2021/12/22 08:23:34;;;;;;;37.33;22.08;;;;;;;;;;6222390;28;20053;-65
2021/12/22 08:26:37;;;;;;;38.58;22.30;;;;;;;;;;6224467;28;20053;-65
2021/12/22 08:29:42;;;;;;;39.20;23.40;;;;;;;;;;6234101;28;20053;-66
2021/12/22 08:32:44;;;;;;;44.17;22.92;;;;;;;;;;6228274;28;20048;-66
2021/12/22 08:39:06;;;;;;;33.47;21.05;;;;;;;;;;6228781;28;20097;-65
2021/12/22 08:42:10;;;;;;;35.10;20.98;;;;;;;;;;6218739;28;20148;-65
2021/12/22 08:45:12;;;;;;;38.63;22.45;;;;;;;;;;6224051;28;20179;-65
2021/12/22 08:48:14;;;;;;;33.67;21.75;;;;;;;;;;6215364;28;20354;-65
2021/12/22 08:51:16;;;;;;;33.63;20.83;;;;;;;;;;6220353;28;20199;-65
2021/12/22 08:54:18;;;;;;;32.80;21.85;;;;;;;;;;6225631;28;20046;-65
2021/12/22 08:57:21;;;;;;;35.65;22.15;;;;;;;;;;6227676;28;20047;-65
2021/12/22 09:00:22;;;;;;;40.17;22.00;;;;;;;;;;6232975;28;20053;-65
2021/12/22 09:03:24;;;;;;;35.90;21.98;;;;;;;;;;6236144;28;20620;-65
2021/12/22 09:06:25;;;;;;;35.22;22.08;;;;;;;;;;6234406;28;20046;-65
2021/12/22 09:09:27;;;;;;;36.17;21.98;;;;;;;;;;6243860;28;20470;-65
2021/12/22 09:12:30;;;;;;;35.13;22.63;;;;;;;;;;6222800;28;20884;-65
2021/12/22 09:15:32;;;;;;;32.75;22.70;;;;;;;;;;6213860;28;20037;-65
2021/12/22 09:18:34;;;;;;;34.65;21.52;;;;;;;;;;6234354;28;20051;-65
2021/12/22 09:21:36;;;;;;;34.63;22.42;;;;;;;;;;6230496;28;20132;-65
2021/12/22 09:24:37;;;;;;;33.42;22.02;;;;;;;;;;6243548;28;20041;-65
2021/12/22 09:27:40;;;;;;;33.08;20.65;;;;;;;;;;6220719;28;20539;-65
2021/12/22 09:30:42;;;;;;;30.42;20.52;;;;;;;;;;6230452;28;20120;-65
2021/12/22 09:33:44;;;;;;;32.08;21.42;;;;;;;;;;6239386;28;20393;-65
2021/12/22 09:36:46;;;;;;;31.20;20.83;;;;;;;;;;6239843;28;20135;-65
2021/12/22 09:39:49;;;;;;;35.95;21.80;;;;;;;;;;6239727;28;20081;-65
2021/12/22 09:42:52;;;;;;;30.55;22.17;;;;;;;;;;6219123;28;20122;-65
2021/12/22 09:45:58;;;;;;;34.20;21.67;;;;;;;;;;6221457;28;20092;-65
2021/12/22 09:49:07;;;;;;;30.27;21.15;;;;;;;;;;6234647;28;20050;-65
2021/12/22 09:52:21;;;;;;;29.85;21.23;;;;;;;;;;6227320;28;20061;-66
2021/12/22 09:55:22;;;;;;;31.25;21.20;;;;;;;;;;6232083;28;20071;-65
2021/12/22 09:58:26;;;;;;;35.40;21.65;;;;;;;;;;6244662;28;20053;-65
2021/12/22 10:01:27;;;;;;;30.30;20.93;;;;;;;;;;6219771;28;20089;-65
2021/12/22 10:04:29;;;;;;;31.02;20.63;;;;;;;;;;6239029;28;20129;-65
2021/12/22 10:07:36;;;;;;;32.10;20.90;;;;;;;;;;6229156;28;20049;-65
2021/12/22 10:10:40;;;;;;;32.35;19.27;;;;;;;;;;6241439;28;20063;-66
2021/12/22 10:13:44;;;;;;;30.95;18.90;;;;;;;;;;6225726;28;20048;-65
2021/12/22 10:16:46;;;;;;;;;;;;;;;;;;6217956;28;20064;-65
2021/12/22 10:19:50;;;;;;;26.02;18.17;;;;;;;;;;6241083;28;20026;-66
2021/12/22 10:22:52;;;;;;;29.23;18.33;;;;;;;;;;6234053;28;20049;-65
2021/12/22 10:25:55;;;;;;;29.35;17.75;;;;;;;;;;6239526;28;20135;-65
2021/12/22 10:29:00;;;;;;;30.25;19.38;;;;;;;;;;6244203;28;20047;-65
2021/12/22 10:32:11;;;;;;;29.15;18.83;;;;;;;;;;6216671;28;20042;-65
2021/12/22 10:35:12;;;;;;;30.00;19.08;;;;;;;;;;6227470;28;20090;-65
2021/12/22 10:38:16;;;;;;;28.33;18.25;;;;;;;;;;6233119;28;20043;-65
2021/12/22 10:41:18;;;;;;;29.17;19.65;;;;;;;;;;6227070;28;20073;-66
2021/12/22 10:44:21;;;;;;;34.20;18.83;;;;;;;;;;6244482;28;20125;-65
2021/12/22 10:47:34;;;;;;;28.13;19.23;;;;;;;;;;6214653;28;20049;-65
2021/12/22 10:50:36;;;;;;;32.13;19.10;;;;;;;;;;6221444;28;20050;-65
2021/12/22 10:53:43;;;;;;;28.00;18.60;;;;;;;;;;6238588;28;20497;-65
2021/12/22 10:56:47;;;;;;;27.55;17.50;;;;;;;;;;6233955;28;20053;-65
2021/12/22 10:59:50;;;;;;;30.20;18.20;;;;;;;;;;6238439;28;20119;-66
2021/12/22 11:03:02;;;;;;;28.38;19.40;;;;;;;;;;6230844;28;20045;-65
2021/12/22 11:06:11;;;;;;;27.83;18.73;;;;;;;;;;6228062;28;20092;-65
2021/12/22 11:09:15;;;;;;;30.17;18.90;;;;;;;;;;6252631;28;20512;-66
2021/12/22 11:12:17;;;;;;;31.70;18.10;;;;;;;;;;6219821;28;20053;-66
2021/12/22 11:15:23;;;;;;;25.45;17.13;;;;;;;;;;6217386;28;20548;-66
2021/12/22 11:18:26;;;;;;;26.05;16.33;;;;;;;;;;6227060;28;20431;-65
2021/12/22 11:21:31;;;;;;;26.08;17.75;;;;;;;;;;6235217;28;20422;-66
2021/12/22 11:24:36;;;;;;;31.30;19.02;;;;;;;;;;6251560;28;20044;-66
2021/12/22 11:27:37;;;;;;;21.83;15.43;;;;;;;;;;6227746;28;20120;-66
2021/12/22 11:30:41;;;;;;;25.95;15.88;;;;;;;;;;6215503;28;20136;-65
2021/12/22 11:33:45;;;;;;;20.95;14.40;;;;;;;;;;6224879;28;20053;-66
2021/12/22 11:36:49;;;;;;;22.52;15.00;;;;;;;;;;6216798;28;20056;-65
2021/12/22 11:39:51;;;;;;;26.25;15.93;;;;;;;;;;6230242;28;20061;-66
2021/12/22 11:42:53;;;;;;;25.77;15.77;;;;;;;;;;6218651;28;20107;-66
2021/12/22 11:45:56;;;;;;;23.75;15.68;;;;;;;;;;6213928;28;20181;-66
2021/12/22 11:48:58;;;;;;;28.57;17.57;;;;;;;;;;6226712;28;20383;-65
2021/12/22 11:51:59;;;;;;;24.73;16.77;;;;;;;;;;6219542;28;20041;-66
2021/12/22 11:55:16;;;;;;;30.15;18.00;;;;;;;;;;6222007;28;20111;-65
2021/12/22 11:58:20;;;;;;;32.38;17.58;;;;;;;;;;6230113;28;20061;-65
2021/12/22 12:01:23;;;;;;;22.55;15.25;;;;;;;;;;6209656;28;20238;-66
2021/12/22 12:04:24;;;;;;;22.53;15.67;;;;;;;;;;6223297;28;20051;-65
2021/12/22 12:07:48;;;;;;;17.35;14.45;;;;;;;;;;6214190;28;20695;-66
2021/12/22 12:10:51;;;;;;;25.58;15.80;;;;;;;;;;6217737;28;20686;-66
2021/12/22 12:13:56;;;;;;;22.80;16.25;;;;;;;;;;6225478;28;20493;-65
2021/12/22 12:24:16;;;;;;;;;;;;;;;;;;6182764;28;20047;-66
2021/12/22 12:27:53;;;;;;;25.80;16.67;;;;;;;;;;6217680;28;20345;-65
2021/12/22 12:30:55;;;;;;;21.40;15.40;;;;;;;;;;6220753;28;20045;-65
2021/12/22 12:34:22;;;;;;;23.98;17.30;;;;;;;;;;6228872;28;20046;-65
2021/12/22 12:37:57;;;;;;;23.23;16.75;;;;;;;;;;6223897;28;20195;-65
2021/12/22 12:41:28;;;;;;;21.05;15.98;;;;;;;;;;6226834;28;20453;-66
2021/12/22 12:44:30;;;;;;;22.80;15.70;;;;;;;;;;6239731;28;20045;-65
2021/12/22 12:47:31;;;;;;;24.50;15.95;;;;;;;;;;6226229;28;20049;-65
2021/12/22 12:50:34;;;;;;;22.45;15.90;;;;;;;;;;6230929;28;20037;-65
2021/12/22 12:53:40;;;;;;;26.77;16.13;;;;;;;;;;6241782;28;20506;-66
2021/12/22 12:56:42;;;;;;;30.38;18.35;;;;;;;;;;6234166;28;20049;-65
2021/12/22 12:59:45;;;;;;;29.48;21.60;;;;;;;;;;6240409;28;20083;-66
2021/12/22 13:02:47;;;;;;;28.40;16.60;;;;;;;;;;6220712;28;20061;-66
2021/12/22 13:05:50;;;;;;;21.85;15.85;;;;;;;;;;6231207;28;20804;-66
2021/12/22 13:08:52;;;;;;;26.42;16.25;;;;;;;;;;6247435;28;20045;-66
2021/12/22 13:11:59;;;;;;;25.73;16.17;;;;;;;;;;6232487;28;20049;-66
2021/12/22 13:18:28;;;;;;;25.55;16.05;;;;;;;;;;6221745;28;20128;-66
2021/12/22 13:21:31;;;;;;;23.05;15.82;;;;;;;;;;6226356;28;20089;-66
2021/12/22 13:24:33;;;;;;;22.48;16.10;;;;;;;;;;6221303;28;20127;-66
2021/12/22 13:27:34;;;;;;;23.83;16.00;;;;;;;;;;6213924;28;20046;-66
2021/12/22 13:30:38;;;;;;;21.10;15.23;;;;;;;;;;6231888;28;20034;-66
2021/12/22 13:33:41;;;;;;;24.02;16.05;;;;;;;;;;6254255;28;20186;-68
2021/12/22 13:36:44;;;;;;;22.98;15.65;;;;;;;;;;6249294;28;20060;-66
2021/12/22 13:39:46;;;;;;;23.65;15.63;;;;;;;;;;6252171;28;20444;-66
2021/12/22 13:42:47;;;;;;;23.00;15.95;;;;;;;;;;6214977;28;20053;-66
2021/12/22 13:45:50;;;;;;;24.00;16.45;;;;;;;;;;6224886;28;20913;-66
2021/12/22 13:48:54;;;;;;;25.05;15.93;;;;;;;;;;6229170;28;20046;-66
2021/12/22 13:51:57;;;;;;;24.40;16.58;;;;;;;;;;6216168;28;20050;-66
2021/12/22 13:54:59;;;;;;;27.55;15.88;;;;;;;;;;6228724;28;20408;-66
2021/12/22 13:58:00;;;;;;;28.40;17.58;;;;;;;;;;6219369;28;20196;-66
2021/12/22 14:01:38;;;;;;;27.02;17.10;;;;;;;;;;6217031;28;20037;-66
2021/12/22 14:04:41;;;;;;;25.85;15.52;;;;;;;;;;6146751;28;20060;-66
2021/12/22 14:07:44;;;;;;;26.10;16.98;;;;;;;;;;6147585;28;20136;-66
2021/12/22 14:10:45;;;;;;;24.00;15.85;;;;;;;;;;6221546;28;20126;-66
2021/12/22 14:13:47;;;;;;;23.90;15.80;;;;;;;;;;6228781;28;20050;-66
2021/12/22 14:16:49;;;;;;;25.85;16.67;;;;;;;;;;6211203;28;20123;-66
2021/12/22 14:20:00;;;;;;;28.13;16.10;;;;;;;;;;6229658;28;20042;-66
2021/12/22 14:23:03;;;;;;;28.08;17.17;;;;;;;;;;6224665;28;20120;-66
2021/12/22 14:26:05;;;;;;;29.25;17.48;;;;;;;;;;6234538;28;20418;-66
2021/12/22 14:29:09;;;;;;;29.48;17.95;;;;;;;;;;6238124;28;20076;-66
2021/12/22 14:32:11;;;;;;;34.05;20.77;;;;;;;;;;6216944;28;20044;-66
2021/12/22 14:35:15;;;;;;;30.25;21.40;;;;;;;;;;6228054;28;20045;-66
2021/12/22 14:38:19;;;;;;;29.10;19.98;;;;;;;;;;6239698;28;20098;-66
2021/12/22 14:41:28;;;;;;;37.92;22.88;;;;;;;;;;6233453;28;20087;-66
2021/12/22 14:44:29;;;;;;;30.70;22.17;;;;;;;;;;6241921;28;20603;-65
2021/12/22 14:47:31;;;;;;;31.48;21.25;;;;;;;;;;6218762;28;20132;-65
2021/12/22 14:50:33;;;;;;;33.17;21.77;;;;;;;;;;6226378;28;20049;-66
2021/12/22 14:53:38;;;;;;;34.10;23.35;;;;;;;;;;6227160;28;20132;-66
2021/12/22 14:56:41;;;;;;;36.47;22.85;;;;;;;;;;6228725;28;20385;-65
2021/12/22 14:59:43;;;;;;;37.23;22.00;;;;;;;;;;6233340;28;20138;-66
2021/12/22 15:02:45;;;;;;;34.67;22.20;;;;;;;;;;6218613;28;20816;-66
2021/12/22 15:05:55;;;;;;;39.75;23.33;;;;;;;;;;6228185;28;20220;-65
2021/12/22 15:08:59;;;;;;;34.95;21.52;;;;;;;;;;6234583;28;20049;-66
2021/12/22 15:12:00;;;;;;;34.97;21.75;;;;;;;;;;6222757;28;20060;-66
2021/12/22 15:15:02;;;;;;;35.08;21.27;;;;;;;;;;6231854;28;20050;-66
2021/12/22 15:18:04;;;;;;;33.38;21.92;;;;;;;;;;6211605;28;20053;-65
2021/12/22 15:21:07;;;;;;;34.30;21.73;;;;;;;;;;6227099;28;20045;-65
2021/12/22 15:24:10;;;;;;;31.80;21.65;;;;;;;;;;6244631;28;20107;-65
2021/12/22 15:27:12;;;;;;;33.83;21.52;;;;;;;;;;6231752;28;20045;-65
2021/12/22 15:30:14;;;;;;;34.88;20.38;;;;;;;;;;6214940;28;20049;-65
2021/12/22 15:33:15;;;;;;;33.25;19.90;;;;;;;;;;6217559;28;20053;-66
2021/12/22 15:36:17;;;;;;;31.27;19.50;;;;;;;;;;6217621;28;20513;-65
2021/12/22 15:39:20;;;;;;;33.10;20.48;;;;;;;;;;6227767;28;20140;-66
2021/12/22 15:42:22;;;;;;;33.28;20.60;;;;;;;;;;6214872;28;20167;-65
2021/12/22 15:45:23;;;;;;;35.05;20.50;;;;;;;;;;6218362;28;20046;-65
2021/12/22 15:48:25;;;;;;;32.08;20.70;;;;;;;;;;6227600;28;20511;-65
2021/12/22 15:51:26;;;;;;;35.33;21.08;;;;;;;;;;6222762;28;20474;-65
2021/12/22 15:54:30;;;;;;;33.03;21.52;;;;;;;;;;6239705;28;20737;-65
2021/12/22 15:57:32;;;;;;;33.97;20.17;;;;;;;;;;6217916;28;20038;-65
2021/12/22 16:00:35;;;;;;;39.90;22.27;;;;;;;;;;6222417;28;20127;-66
2021/12/22 16:03:37;;;;;;;39.57;23.67;;;;;;;;;;6234079;28;20057;-65
2021/12/22 16:06:38;;;;;;;42.15;26.40;;;;;;;;;;6233029;28;20220;-66
2021/12/22 16:09:42;;;;;;;66.53;37.60;;;;;;;;;;6245895;28;20516;-66
2021/12/22 16:12:43;;;;;;;45.28;27.23;;;;;;;;;;6225575;28;20088;-65
2021/12/22 16:15:45;;;;;;;41.25;24.02;;;;;;;;;;6216312;28;20079;-65
2021/12/22 16:18:46;;;;;;;44.80;26.70;;;;;;;;;;6226098;28;20051;-65
2021/12/22 16:21:48;;;;;;;45.20;27.10;;;;;;;;;;6227969;28;20191;-65
2021/12/22 16:24:51;;;;;;;43.22;25.00;;;;;;;;;;6237183;28;20133;-65
2021/12/22 16:27:53;;;;;;;47.22;27.75;;;;;;;;;;6222024;28;20129;-66
2021/12/22 16:30:55;;;;;;;49.72;28.70;;;;;;;;;;6225849;28;20061;-65
2021/12/22 16:33:56;;;;;;;47.10;27.98;;;;;;;;;;6234387;28;20077;-65
2021/12/22 16:36:58;;;;;;;47.95;28.25;;;;;;;;;;6228478;28;21424;-65
2021/12/22 16:40:02;;;;;;;45.90;25.90;;;;;;;;;;6233073;28;20049;-65
2021/12/22 16:43:04;;;;;;;40.50;25.38;;;;;;;;;;6228831;28;20057;-65
2021/12/22 16:46:06;;;;;;;47.58;27.58;;;;;;;;;;6220722;28;20037;-65
2021/12/22 16:49:08;;;;;;;50.17;28.55;;;;;;;;;;6235149;28;20151;-65
2021/12/22 16:52:09;;;;;;;51.05;27.65;;;;;;;;;;6225298;28;23583;-65
2021/12/22 16:55:13;;;;;;;50.28;27.48;;;;;;;;;;6230548;28;20038;-66
2021/12/22 16:58:16;;;;;;;49.50;27.47;;;;;;;;;;6231781;28;20056;-65
2021/12/22 17:01:18;;;;;;;48.10;28.27;;;;;;;;;;6210033;28;20058;-66
2021/12/22 17:04:20;;;;;;;50.80;28.58;;;;;;;;;;6231116;28;20207;-65
2021/12/22 17:07:22;;;;;;;48.33;25.35;;;;;;;;;;6218853;28;20085;-65
2021/12/22 17:10:25;;;;;;;49.20;28.80;;;;;;;;;;6233810;28;20040;-65
2021/12/22 17:13:27;;;;;;;50.63;26.92;;;;;;;;;;6223709;28;20164;-65
2021/12/22 17:16:30;;;;;;;47.90;26.50;;;;;;;;;;6215223;28;20107;-65
2021/12/22 17:19:31;;;;;;;48.53;26.85;;;;;;;;;;6231796;28;20061;-65
2021/12/22 17:22:35;;;;;;;44.20;25.65;;;;;;;;;;6222454;28;20064;-65
2021/12/22 17:25:38;;;;;;;47.33;25.33;;;;;;;;;;6224222;28;20050;-65
2021/12/22 17:28:39;;;;;;;52.35;26.67;;;;;;;;;;6236309;28;20084;-65
2021/12/22 17:31:41;;;;;;;55.80;28.80;;;;;;;;;;6214538;28;20067;-65
2021/12/22 17:34:43;;;;;;;57.47;29.48;;;;;;;;;;6229938;28;20057;-65
2021/12/22 17:37:44;;;;;;;51.95;27.67;;;;;;;;;;6222257;28;20111;-65
2021/12/22 17:40:48;;;;;;;55.08;27.38;;;;;;;;;;6227866;28;20049;-65
2021/12/22 17:43:50;;;;;;;49.60;26.57;;;;;;;;;;6236003;28;20095;-65
2021/12/22 17:46:51;;;;;;;48.58;25.95;;;;;;;;;;6218014;28;20044;-65
2021/12/22 17:49:53;;;;;;;47.40;26.65;;;;;;;;;;6229073;28;20057;-66
2021/12/22 17:52:56;;;;;;;47.72;26.33;;;;;;;;;;6215225;28;20108;-65
2021/12/22 17:55:59;;;;;;;47.70;24.98;;;;;;;;;;6218529;28;20056;-65
2021/12/22 17:59:05;;;;;;;47.60;25.95;;;;;;;;;;6237629;28;20135;-65
2021/12/22 18:02:06;;;;;;;47.97;23.77;;;;;;;;;;6207972;28;20053;-65
2021/12/22 18:05:11;;;;;;;50.50;24.95;;;;;;;;;;6227153;28;20042;-65
2021/12/22 18:08:12;;;;;;;49.95;26.98;;;;;;;;;;6224150;28;20034;-65